KLM35D GMMN-LPMA
Flight info
| Callsign | KLM35D |
|---|---|
| Flight time | N/A |
| Altitude | 36000 |
| Route | ODAXA UH899 IBALU DCT SUBAL/N0458F350 DCT LIDRO |
| Aircraft | A21N/M-SDE2E3FGHIRWXY/LB1 |
Departure
| Time | 2026-05-07 17:35 |
|---|---|
| Airport | Mohammed V International Airport (GMMN) |
Arrival
| Time | N/A |
|---|---|
| Airport | Cristiano Ronaldo International Airport (LPMA) |
| Time | Latitude | Longitude | Altitude | Speed | Heading |
|---|---|---|---|---|---|
| 2026-05-07 16:23 | 33.36656 | -7.57988 | 658 ft | 0 kts | 74° |
| 2026-05-07 17:05 | 33.36654 | -7.57997 | 656 ft | 2 kts | 74° |
| 2026-05-07 17:05 | 33.36650 | -7.58017 | 659 ft | 2 kts | 74° |
| 2026-05-07 17:06 | 33.36645 | -7.58036 | 659 ft | 2 kts | 74° |
| 2026-05-07 17:06 | 33.36641 | -7.58055 | 659 ft | 2 kts | 74° |
| 2026-05-07 17:06 | 33.36639 | -7.58075 | 659 ft | 3 kts | 118° |
| 2026-05-07 17:06 | 33.36646 | -7.58090 | 658 ft | 2 kts | 132° |
| 2026-05-07 17:07 | 33.36655 | -7.58100 | 659 ft | 0 kts | 163° |
| 2026-05-07 17:08 | 33.36655 | -7.58099 | 659 ft | 0 kts | 163° |
| 2026-05-07 17:08 | 33.36649 | -7.58097 | 659 ft | 3 kts | 163° |
| 2026-05-07 17:09 | 33.36608 | -7.58082 | 656 ft | 10 kts | 163° |
| 2026-05-07 17:09 | 33.36526 | -7.58093 | 656 ft | 15 kts | 203° |
| 2026-05-07 17:09 | 33.36409 | -7.58132 | 659 ft | 19 kts | 174° |
| 2026-05-07 17:09 | 33.36303 | -7.58105 | 659 ft | 8 kts | 189° |
| 2026-05-07 17:10 | 33.36277 | -7.58122 | 659 ft | 0 kts | 228° |
| 2026-05-07 17:10 | 33.36270 | -7.58131 | 657 ft | 2 kts | 228° |
| 2026-05-07 17:11 | 33.36264 | -7.58140 | 656 ft | 1 kts | 238° |
| 2026-05-07 17:11 | 33.36249 | -7.58197 | 656 ft | 14 kts | 246° |
| 2026-05-07 17:11 | 33.36185 | -7.58236 | 656 ft | 12 kts | 166° |
| 2026-05-07 17:12 | 33.36039 | -7.58186 | 657 ft | 31 kts | 163° |
| 2026-05-07 17:12 | 33.35825 | -7.58112 | 658 ft | 31 kts | 164° |
| 2026-05-07 17:12 | 33.35641 | -7.58049 | 659 ft | 9 kts | 164° |
| 2026-05-07 17:12 | 33.35593 | -7.58033 | 659 ft | 8 kts | 164° |
| 2026-05-07 17:13 | 33.35583 | -7.58030 | 659 ft | 0 kts | 164° |
| 2026-05-07 17:13 | 33.35582 | -7.58030 | 659 ft | 1 kts | 164° |
| 2026-05-07 17:13 | 33.35582 | -7.58029 | 659 ft | 0 kts | 164° |
| 2026-05-07 17:14 | 33.35581 | -7.58029 | 659 ft | 1 kts | 164° |
| 2026-05-07 17:14 | 33.35546 | -7.58017 | 659 ft | 9 kts | 164° |
| 2026-05-07 17:14 | 33.35522 | -7.58009 | 659 ft | 0 kts | 163° |
| 2026-05-07 17:15 | 33.35518 | -7.58008 | 659 ft | 3 kts | 163° |
| 2026-05-07 17:15 | 33.35473 | -7.57992 | 659 ft | 11 kts | 164° |
| 2026-05-07 17:16 | 33.35406 | -7.57969 | 660 ft | 0 kts | 164° |
| 2026-05-07 17:19 | 33.35396 | -7.57965 | 660 ft | 4 kts | 163° |
| 2026-05-07 17:19 | 33.35365 | -7.57954 | 660 ft | 0 kts | 163° |
| 2026-05-07 17:19 | 33.35363 | -7.57954 | 660 ft | 0 kts | 163° |
| 2026-05-07 17:21 | 33.35360 | -7.57953 | 660 ft | 1 kts | 164° |
| 2026-05-07 17:21 | 33.35339 | -7.57947 | 660 ft | 7 kts | 169° |
| 2026-05-07 17:21 | 33.35287 | -7.57958 | 660 ft | 0 kts | 212° |
| 2026-05-07 17:23 | 33.35280 | -7.57964 | 660 ft | 3 kts | 218° |
| 2026-05-07 17:23 | 33.35266 | -7.57980 | 660 ft | 3 kts | 233° |
| 2026-05-07 17:23 | 33.35257 | -7.58004 | 660 ft | 0 kts | 247° |
| 2026-05-07 17:25 | 33.35256 | -7.58005 | 660 ft | 1 kts | 248° |
| 2026-05-07 17:25 | 33.35249 | -7.58030 | 660 ft | 6 kts | 251° |
| 2026-05-07 17:26 | 33.35240 | -7.58062 | 660 ft | 0 kts | 252° |
| 2026-05-07 17:32 | 33.35236 | -7.58078 | 660 ft | 7 kts | 252° |
| 2026-05-07 17:32 | 33.35214 | -7.58173 | 661 ft | 16 kts | 262° |
| 2026-05-07 17:32 | 33.35224 | -7.58256 | 662 ft | 10 kts | 308° |
| 2026-05-07 17:33 | 33.35271 | -7.58280 | 662 ft | 0 kts | 343° |
| 2026-05-07 17:34 | 33.35272 | -7.58280 | 662 ft | 0 kts | 343° |
| 2026-05-07 17:34 | 33.35325 | -7.58299 | 662 ft | 34 kts | 344° |
| 2026-05-07 17:34 | 33.35808 | -7.58463 | 657 ft | 111 kts | 344° |
| 2026-05-07 17:35 | 33.36761 | -7.58803 | 766 ft | 164 kts | 345° |
| 2026-05-07 17:35 | 33.37923 | -7.59189 | 1309 ft | 180 kts | 347° |
| 2026-05-07 17:35 | 33.39171 | -7.59589 | 1898 ft | 192 kts | 344° |
| 2026-05-07 17:35 | 33.40452 | -7.59975 | 2598 ft | 193 kts | 347° |
| 2026-05-07 17:36 | 33.41782 | -7.60629 | 3016 ft | 221 kts | 327° |
| 2026-05-07 17:36 | 33.42890 | -7.61983 | 3599 ft | 233 kts | 309° |
| 2026-05-07 17:36 | 33.43818 | -7.63580 | 3934 ft | 237 kts | 304° |
| 2026-05-07 17:36 | 33.44725 | -7.65244 | 4001 ft | 239 kts | 304° |
| 2026-05-07 17:37 | 33.45636 | -7.66905 | 4001 ft | 237 kts | 303° |
| 2026-05-07 17:37 | 33.46540 | -7.68534 | 3996 ft | 235 kts | 304° |
| 2026-05-07 17:37 | 33.47453 | -7.70168 | 4011 ft | 237 kts | 304° |
| 2026-05-07 17:37 | 33.48383 | -7.71822 | 4483 ft | 242 kts | 303° |
| 2026-05-07 17:38 | 33.49318 | -7.73478 | 5431 ft | 244 kts | 302° |
| 2026-05-07 17:38 | 33.50358 | -7.75329 | 5443 ft | 290 kts | 302° |
| 2026-05-07 17:38 | 33.51546 | -7.77440 | 5586 ft | 323 kts | 303° |
| 2026-05-07 17:38 | 33.52838 | -7.79723 | 6361 ft | 328 kts | 302° |
| 2026-05-07 17:39 | 33.54085 | -7.81923 | 7569 ft | 319 kts | 301° |
| 2026-05-07 17:39 | 33.55310 | -7.84084 | 8895 ft | 308 kts | 301° |
| 2026-05-07 17:39 | 33.56491 | -7.86168 | 10206 ft | 296 kts | 300° |
| 2026-05-07 17:39 | 33.57624 | -7.88170 | 11416 ft | 284 kts | 299° |
| 2026-05-07 17:40 | 33.58886 | -7.89964 | 12469 ft | 284 kts | 313° |
| 2026-05-07 17:40 | 33.60471 | -7.91468 | 12972 ft | 303 kts | 319° |
| 2026-05-07 17:40 | 33.62255 | -7.92969 | 13271 ft | 324 kts | 320° |
| 2026-05-07 17:40 | 33.64172 | -7.94550 | 13569 ft | 344 kts | 321° |
| 2026-05-07 17:41 | 33.66202 | -7.96233 | 13841 ft | 363 kts | 321° |
| 2026-05-07 17:41 | 33.68326 | -7.98003 | 14091 ft | 380 kts | 321° |
| 2026-05-07 17:41 | 33.70508 | -7.99829 | 14457 ft | 392 kts | 321° |
| 2026-05-07 17:41 | 33.72763 | -8.01722 | 14510 ft | 395 kts | 320° |
| 2026-05-07 17:42 | 33.74964 | -8.03603 | 14758 ft | 400 kts | 321° |
| 2026-05-07 17:42 | 33.77229 | -8.05502 | 14921 ft | 399 kts | 321° |
| 2026-05-07 17:42 | 33.79500 | -8.07402 | 14948 ft | 397 kts | 321° |
| 2026-05-07 17:42 | 33.81770 | -8.09307 | 14945 ft | 398 kts | 321° |
| 2026-05-07 17:43 | 33.84040 | -8.11220 | 15218 ft | 401 kts | 321° |
| 2026-05-07 17:43 | 33.86325 | -8.13148 | 15880 ft | 401 kts | 320° |
| 2026-05-07 17:43 | 33.88614 | -8.15081 | 16538 ft | 402 kts | 320° |
| 2026-05-07 17:43 | 33.90894 | -8.17011 | 17138 ft | 404 kts | 320° |
| 2026-05-07 17:44 | 33.93196 | -8.18960 | 17722 ft | 407 kts | 320° |
| 2026-05-07 17:44 | 33.95487 | -8.20932 | 18289 ft | 408 kts | 317° |
| 2026-05-07 17:44 | 33.97502 | -8.23296 | 18747 ft | 402 kts | 302° |
| 2026-05-07 17:44 | 33.98804 | -8.26107 | 19135 ft | 398 kts | 287° |
| 2026-05-07 17:45 | 33.99508 | -8.29397 | 18756 ft | 413 kts | 272° |
| 2026-05-07 17:45 | 33.99413 | -8.32845 | 18865 ft | 413 kts | 257° |
| 2026-05-07 17:45 | 33.98786 | -8.36042 | 19537 ft | 402 kts | 254° |
| 2026-05-07 17:45 | 33.98154 | -8.39283 | 20410 ft | 392 kts | 256° |
| 2026-05-07 17:46 | 33.97634 | -8.42491 | 21092 ft | 391 kts | 259° |
| 2026-05-07 17:46 | 33.97425 | -8.45740 | 21620 ft | 395 kts | 267° |
| 2026-05-07 17:46 | 33.97742 | -8.49047 | 22076 ft | 403 kts | 279° |
| 2026-05-07 17:46 | 33.98734 | -8.52235 | 22559 ft | 414 kts | 293° |
| 2026-05-07 17:47 | 34.00333 | -8.55137 | 22984 ft | 421 kts | 298° |
| 2026-05-07 17:47 | 34.01845 | -8.58150 | 23411 ft | 421 kts | 296° |
| 2026-05-07 17:47 | 34.03651 | -8.60990 | 23768 ft | 432 kts | 307° |
| 2026-05-07 17:47 | 34.05907 | -8.63378 | 24124 ft | 444 kts | 319° |
| 2026-05-07 17:48 | 34.08655 | -8.65170 | 24472 ft | 456 kts | 330° |
| 2026-05-07 17:48 | 34.11632 | -8.66567 | 24847 ft | 461 kts | 334° |
| 2026-05-07 17:48 | 34.14686 | -8.67791 | 25208 ft | 464 kts | 336° |
| 2026-05-07 17:48 | 34.17777 | -8.68931 | 25577 ft | 467 kts | 337° |
| 2026-05-07 17:49 | 34.20901 | -8.70053 | 25927 ft | 469 kts | 337° |
| 2026-05-07 17:49 | 34.24034 | -8.71184 | 26277 ft | 470 kts | 336° |
| 2026-05-07 17:49 | 34.27163 | -8.72334 | 26607 ft | 473 kts | 336° |
| 2026-05-07 17:49 | 34.30284 | -8.73502 | 26863 ft | 475 kts | 336° |
| 2026-05-07 17:50 | 34.33445 | -8.74699 | 27199 ft | 476 kts | 336° |
| 2026-05-07 17:50 | 34.36591 | -8.75897 | 27678 ft | 474 kts | 336° |
| 2026-05-07 17:50 | 34.39716 | -8.77129 | 28140 ft | 469 kts | 333° |
| 2026-05-07 17:50 | 34.42658 | -8.78725 | 28573 ft | 460 kts | 324° |
| 2026-05-07 17:51 | 34.45311 | -8.80821 | 28904 ft | 451 kts | 314° |
| 2026-05-07 17:51 | 34.47530 | -8.83356 | 29290 ft | 440 kts | 304° |
| 2026-05-07 17:51 | 34.49309 | -8.86307 | 29715 ft | 430 kts | 294° |
| 2026-05-07 17:51 | 34.50659 | -8.89508 | 30133 ft | 424 kts | 289° |
| 2026-05-07 17:52 | 34.51816 | -8.92779 | 30500 ft | 420 kts | 287° |
| 2026-05-07 17:52 | 34.52876 | -8.96073 | 30844 ft | 418 kts | 285° |
| 2026-05-07 17:52 | 34.53891 | -8.99363 | 31190 ft | 417 kts | 285° |
| 2026-05-07 17:52 | 34.54901 | -9.02658 | 31537 ft | 416 kts | 285° |
| 2026-05-07 17:53 | 34.55917 | -9.05944 | 31871 ft | 415 kts | 285° |
| 2026-05-07 17:53 | 34.56939 | -9.09209 | 32219 ft | 414 kts | 285° |
| 2026-05-07 17:53 | 34.57972 | -9.12475 | 32434 ft | 416 kts | 285° |
| 2026-05-07 17:53 | 34.59010 | -9.15741 | 32677 ft | 416 kts | 285° |
| 2026-05-07 17:54 | 34.60058 | -9.19019 | 32980 ft | 415 kts | 285° |
| 2026-05-07 17:54 | 34.61086 | -9.22233 | 33287 ft | 414 kts | 285° |
| 2026-05-07 17:54 | 34.62110 | -9.25439 | 33570 ft | 413 kts | 285° |
| 2026-05-07 17:54 | 34.63143 | -9.28674 | 33842 ft | 412 kts | 285° |
| 2026-05-07 17:55 | 34.64179 | -9.31927 | 34100 ft | 412 kts | 285° |
| 2026-05-07 17:55 | 34.65209 | -9.35167 | 34293 ft | 412 kts | 285° |
| 2026-05-07 17:55 | 34.66240 | -9.38415 | 34542 ft | 410 kts | 284° |
| 2026-05-07 17:55 | 34.67263 | -9.41639 | 34803 ft | 408 kts | 284° |
| 2026-05-07 17:56 | 34.68280 | -9.44848 | 35057 ft | 406 kts | 284° |
| 2026-05-07 17:56 | 34.69294 | -9.48051 | 35280 ft | 406 kts | 284° |
| 2026-05-07 17:56 | 34.70302 | -9.51244 | 35416 ft | 407 kts | 284° |
| 2026-05-07 17:56 | 34.71316 | -9.54459 | 35607 ft | 406 kts | 284° |
| 2026-05-07 17:57 | 34.72312 | -9.57617 | 35822 ft | 404 kts | 284° |
| 2026-05-07 17:57 | 34.72992 | -9.59773 | 35933 ft | 405 kts | 284° |
| 2026-05-07 17:57 | 34.75326 | -9.67195 | 35961 ft | 404 kts | 284° |
| 2026-05-07 17:58 | 34.77277 | -9.73412 | 35963 ft | 403 kts | 284° |
| 2026-05-07 17:58 | 34.79272 | -9.79781 | 35963 ft | 403 kts | 284° |
| 2026-05-07 17:59 | 34.81246 | -9.86098 | 35967 ft | 403 kts | 283° |
| 2026-05-07 17:59 | 34.83210 | -9.92395 | 35963 ft | 404 kts | 283° |
| 2026-05-07 18:00 | 34.85194 | -9.98773 | 35967 ft | 404 kts | 283° |
| 2026-05-07 18:00 | 34.86977 | -10.05181 | 35966 ft | 398 kts | 275° |
| 2026-05-07 18:01 | 34.87461 | -10.11719 | 35963 ft | 385 kts | 261° |
| 2026-05-07 18:01 | 34.86695 | -10.17995 | 35963 ft | 381 kts | 254° |
| 2026-05-07 18:02 | 34.84918 | -10.27420 | 35964 ft | 380 kts | 253° |
| 2026-05-07 18:03 | 34.83741 | -10.33577 | 35966 ft | 381 kts | 253° |
| 2026-05-07 18:03 | 34.82574 | -10.39861 | 35967 ft | 381 kts | 253° |
| 2026-05-07 18:04 | 34.81431 | -10.46089 | 35967 ft | 381 kts | 253° |
| 2026-05-07 18:04 | 34.80303 | -10.52228 | 35966 ft | 381 kts | 253° |
| 2026-05-07 18:05 | 34.79161 | -10.58413 | 35987 ft | 381 kts | 253° |
| 2026-05-07 18:05 | 34.77995 | -10.64704 | 35960 ft | 382 kts | 253° |
| 2026-05-07 18:06 | 34.76845 | -10.70886 | 35971 ft | 381 kts | 253° |
| 2026-05-07 18:06 | 34.75688 | -10.77096 | 35971 ft | 381 kts | 253° |
| 2026-05-07 18:07 | 34.74523 | -10.83324 | 35975 ft | 381 kts | 253° |
| 2026-05-07 18:07 | 34.73351 | -10.89568 | 35974 ft | 381 kts | 253° |
| 2026-05-07 18:08 | 34.72176 | -10.95814 | 35982 ft | 381 kts | 252° |
| 2026-05-07 18:08 | 34.70989 | -11.02101 | 35976 ft | 382 kts | 252° |
| 2026-05-07 18:09 | 34.69807 | -11.08343 | 35985 ft | 382 kts | 252° |
| 2026-05-07 18:09 | 34.68620 | -11.14599 | 35968 ft | 382 kts | 252° |
| 2026-05-07 18:10 | 34.67434 | -11.20828 | 35977 ft | 382 kts | 252° |
| 2026-05-07 18:10 | 34.66241 | -11.27074 | 35971 ft | 382 kts | 252° |
| 2026-05-07 18:11 | 34.65040 | -11.33344 | 35994 ft | 383 kts | 252° |
| 2026-05-07 18:11 | 34.63829 | -11.39643 | 35976 ft | 384 kts | 252° |
| 2026-05-07 18:12 | 34.62642 | -11.45803 | 35978 ft | 384 kts | 252° |
| 2026-05-07 18:12 | 34.61450 | -11.51975 | 35975 ft | 384 kts | 252° |
| 2026-05-07 18:13 | 34.60237 | -11.58230 | 35971 ft | 384 kts | 252° |
| 2026-05-07 18:13 | 34.59020 | -11.64493 | 35971 ft | 384 kts | 252° |
| 2026-05-07 18:14 | 34.57796 | -11.70771 | 35973 ft | 384 kts | 252° |
| 2026-05-07 18:14 | 34.56576 | -11.77012 | 35971 ft | 384 kts | 252° |
| 2026-05-07 18:15 | 34.55342 | -11.83304 | 35973 ft | 384 kts | 251° |
| 2026-05-07 18:15 | 34.54111 | -11.89567 | 35973 ft | 384 kts | 251° |
| 2026-05-07 18:16 | 34.52870 | -11.95858 | 35967 ft | 384 kts | 251° |
| 2026-05-07 18:16 | 34.51624 | -12.02158 | 35969 ft | 384 kts | 251° |
| 2026-05-07 18:17 | 34.50375 | -12.08455 | 35978 ft | 384 kts | 251° |
| 2026-05-07 18:17 | 34.49136 | -12.14683 | 35971 ft | 384 kts | 251° |
| 2026-05-07 18:18 | 34.47883 | -12.20959 | 35977 ft | 384 kts | 251° |
| 2026-05-07 18:18 | 34.46633 | -12.27208 | 35977 ft | 384 kts | 251° |
| 2026-05-07 18:19 | 34.45372 | -12.33495 | 35968 ft | 384 kts | 251° |
| 2026-05-07 18:19 | 34.44106 | -12.39785 | 35971 ft | 384 kts | 251° |
| 2026-05-07 18:20 | 34.42836 | -12.46076 | 35973 ft | 384 kts | 251° |
| 2026-05-07 18:20 | 34.41565 | -12.52357 | 35970 ft | 384 kts | 251° |
| 2026-05-07 18:21 | 34.40290 | -12.58642 | 35969 ft | 384 kts | 251° |
| 2026-05-07 18:21 | 34.39022 | -12.64873 | 35969 ft | 384 kts | 250° |
| 2026-05-07 18:22 | 34.37745 | -12.71126 | 35971 ft | 384 kts | 250° |
| 2026-05-07 18:22 | 34.36461 | -12.77402 | 36012 ft | 384 kts | 250° |
| 2026-05-07 18:23 | 34.35182 | -12.83634 | 35968 ft | 384 kts | 250° |
| 2026-05-07 18:23 | 34.33899 | -12.89869 | 35968 ft | 384 kts | 250° |
| 2026-05-07 18:24 | 34.32625 | -12.96041 | 35969 ft | 384 kts | 250° |
| 2026-05-07 18:24 | 34.31327 | -13.02313 | 35969 ft | 384 kts | 250° |
| 2026-05-07 18:25 | 34.30026 | -13.08585 | 35969 ft | 384 kts | 250° |
| 2026-05-07 18:25 | 34.28732 | -13.14800 | 35998 ft | 384 kts | 250° |
| 2026-05-07 18:26 | 34.27421 | -13.21080 | 35971 ft | 385 kts | 250° |
| 2026-05-07 18:26 | 34.26109 | -13.27357 | 35971 ft | 384 kts | 251° |
| 2026-05-07 18:27 | 34.24810 | -13.33555 | 35972 ft | 383 kts | 250° |
| 2026-05-07 18:27 | 34.23509 | -13.39736 | 35971 ft | 383 kts | 250° |
| 2026-05-07 18:28 | 34.22193 | -13.45971 | 35972 ft | 383 kts | 250° |
| 2026-05-07 18:28 | 34.20888 | -13.52141 | 35981 ft | 383 kts | 251° |
| 2026-05-07 18:29 | 34.19570 | -13.58354 | 35973 ft | 385 kts | 251° |
| 2026-05-07 18:29 | 34.18239 | -13.64613 | 35976 ft | 385 kts | 251° |
| 2026-05-07 18:30 | 34.16903 | -13.70882 | 35772 ft | 386 kts | 251° |
| 2026-05-07 18:30 | 34.16233 | -13.74015 | 35529 ft | 386 kts | 251° |
| 2026-05-07 18:30 | 34.15565 | -13.77143 | 35290 ft | 381 kts | 250° |
| 2026-05-07 18:30 | 34.14915 | -13.80196 | 35045 ft | 371 kts | 250° |
| 2026-05-07 18:31 | 34.14288 | -13.83140 | 34735 ft | 364 kts | 250° |
| 2026-05-07 18:31 | 34.13659 | -13.86078 | 34305 ft | 360 kts | 250° |
| 2026-05-07 18:31 | 34.13032 | -13.88990 | 33770 ft | 356 kts | 250° |
| 2026-05-07 18:31 | 34.12414 | -13.91860 | 32800 ft | 354 kts | 250° |
| 2026-05-07 18:32 | 34.11786 | -13.94754 | 31666 ft | 357 kts | 249° |
| 2026-05-07 18:32 | 34.11159 | -13.97645 | 30776 ft | 355 kts | 249° |
| 2026-05-07 18:32 | 34.10551 | -14.00466 | 30036 ft | 349 kts | 248° |
| 2026-05-07 18:32 | 34.09944 | -14.03281 | 29180 ft | 343 kts | 249° |
| 2026-05-07 18:33 | 34.09347 | -14.06043 | 28253 ft | 339 kts | 249° |
| 2026-05-07 18:33 | 34.08751 | -14.08787 | 27323 ft | 337 kts | 249° |
| 2026-05-07 18:33 | 34.08162 | -14.11492 | 26604 ft | 329 kts | 250° |
| 2026-05-07 18:33 | 34.07589 | -14.14134 | 25943 ft | 322 kts | 250° |
| 2026-05-07 18:34 | 34.07032 | -14.16698 | 25243 ft | 318 kts | 250° |
| 2026-05-07 18:34 | 34.06472 | -14.19260 | 24512 ft | 314 kts | 251° |
| 2026-05-07 18:34 | 34.05917 | -14.21797 | 23804 ft | 312 kts | 251° |
| 2026-05-07 18:34 | 34.05365 | -14.24309 | 23067 ft | 307 kts | 252° |
| 2026-05-07 18:35 | 34.04824 | -14.26779 | 22271 ft | 304 kts | 253° |
| 2026-05-07 18:35 | 34.04280 | -14.29255 | 20953 ft | 314 kts | 253° |
| 2026-05-07 18:35 | 34.03715 | -14.31816 | 20148 ft | 312 kts | 254° |
| 2026-05-07 18:35 | 34.03175 | -14.34285 | 19680 ft | 299 kts | 254° |
| 2026-05-07 18:36 | 34.02649 | -14.36685 | 18998 ft | 295 kts | 255° |
| 2026-05-07 18:36 | 34.02140 | -14.39007 | 18297 ft | 293 kts | 255° |
| 2026-05-07 18:36 | 34.01619 | -14.41374 | 17500 ft | 290 kts | 255° |
| 2026-05-07 18:36 | 34.01111 | -14.43683 | 16755 ft | 287 kts | 256° |
| 2026-05-07 18:37 | 34.00601 | -14.45996 | 16002 ft | 284 kts | 256° |
| 2026-05-07 18:37 | 34.00105 | -14.48247 | 15294 ft | 281 kts | 256° |
| 2026-05-07 18:37 | 33.99603 | -14.50517 | 14591 ft | 279 kts | 256° |
| 2026-05-07 18:37 | 33.99117 | -14.52715 | 13919 ft | 276 kts | 257° |
| 2026-05-07 18:38 | 33.98625 | -14.54940 | 13179 ft | 274 kts | 257° |
| 2026-05-07 18:38 | 33.98139 | -14.57140 | 12467 ft | 270 kts | 256° |
| 2026-05-07 18:38 | 33.97656 | -14.59320 | 12070 ft | 269 kts | 257° |
| 2026-05-07 18:38 | 33.97173 | -14.61504 | 11963 ft | 271 kts | 257° |
| 2026-05-07 18:39 | 33.96699 | -14.63676 | 11867 ft | 262 kts | 257° |
| 2026-05-07 18:39 | 33.96226 | -14.65818 | 11969 ft | 267 kts | 257° |
| 2026-05-07 18:39 | 33.95743 | -14.67990 | 11971 ft | 269 kts | 257° |
| 2026-05-07 18:39 | 33.95257 | -14.70164 | 11971 ft | 269 kts | 257° |
| 2026-05-07 18:40 | 33.94768 | -14.72346 | 11971 ft | 269 kts | 257° |
| 2026-05-07 18:40 | 33.94281 | -14.74524 | 11974 ft | 270 kts | 257° |
| 2026-05-07 18:40 | 33.93885 | -14.76722 | 11974 ft | 268 kts | 265° |
| 2026-05-07 18:40 | 33.93902 | -14.78943 | 11970 ft | 268 kts | 279° |
| 2026-05-07 18:41 | 33.94494 | -14.81066 | 11974 ft | 270 kts | 297° |
| 2026-05-07 18:41 | 33.95686 | -14.82777 | 11974 ft | 276 kts | 318° |
| 2026-05-07 18:41 | 33.97404 | -14.83855 | 11767 ft | 284 kts | 341° |
| 2026-05-07 18:41 | 33.99407 | -14.83941 | 11811 ft | 300 kts | 6° |
| 2026-05-07 18:42 | 34.01369 | -14.82962 | 11961 ft | 313 kts | 31° |
| 2026-05-07 18:42 | 34.02901 | -14.81067 | 11980 ft | 319 kts | 49° |
| 2026-05-07 18:42 | 34.04153 | -14.78839 | 11975 ft | 323 kts | 56° |
| 2026-05-07 18:42 | 34.05259 | -14.76472 | 11974 ft | 325 kts | 59° |
| 2026-05-07 18:43 | 34.06290 | -14.74088 | 11970 ft | 313 kts | 59° |
| 2026-05-07 18:43 | 34.07267 | -14.71799 | 11972 ft | 303 kts | 59° |
| 2026-05-07 18:43 | 34.08372 | -14.69663 | 11972 ft | 297 kts | 45° |
| 2026-05-07 18:43 | 34.09884 | -14.68045 | 11969 ft | 287 kts | 23° |
| 2026-05-07 18:44 | 34.11716 | -14.67340 | 11976 ft | 271 kts | 356° |
| 2026-05-07 18:44 | 34.13516 | -14.67691 | 11973 ft | 258 kts | 330° |
| 2026-05-07 18:44 | 34.14926 | -14.68895 | 11971 ft | 249 kts | 307° |